• Join FlightAware (Why Join?)
  • Login
  • US Flag 
08:40PM EDT


 

Airport Tracker/Info


-or-


 

Live Flight TrackerFlight Track Log ✈ UAL4234 ✈ 19-Apr-2013 ✈ KIAH - KRDU

Flight Track Log - Related Links

Times and Time Zones

All times are in EDT time to prevent confusion due to time zone crossing. See the UAL4234 flight status page for this flight to view local times or setup timezone preferences in your user account.

Time Position Orientation Groundspeed Altitude Reporting Facility
EDT Latitude Longitude Course Direction KTS MPH feet Rate Location/Type
04:58PM 29.9861 -95.3575 North 155 178 500  Level Houston Center
04:58PM 30.0028 -95.3556 North 173 199 1,400 1,500 Climbing Houston Center
04:59PM 30.0397 -95.3350 26° Northeast 201 231 2,300 1,620 Climbing Houston Center
05:00PM 30.0956 -95.2967 31° Northeast 220 253 4,400 2,280 Climbing Houston Center
05:01PM 30.1492 -95.2458 39° Northeast 242 278 7,100 2,220 Climbing Houston Center
05:02PM 30.2069 -95.1919 39° Northeast 262 302 9,100 1,920 Climbing Houston Center
05:03PM 30.2844 -95.1194 39° Northeast 293 337 11,100 1,560 Climbing Houston Center
05:04PM 30.3617 -95.0483 38° Northeast 344 396 12,400 1,560 Climbing Houston Center
05:05PM 30.4428 -94.9750 38° Northeast 359 413 14,400 1,680 Climbing Houston Center
05:06PM 30.5283 -94.9103 33° Northeast 367 422 15,900 1,260 Climbing Houston Center
05:07PM 30.6178 -94.8400 34° Northeast 380 437 17,100 1,140 Climbing Houston Center
05:08PM 30.7311 -94.7553 33° Northeast 400 460 18,300 1,200 Climbing Houston Center
05:09PM 30.8289 -94.6797 34° Northeast 417 480 19,600 1,260 Climbing Houston Center
05:10PM 30.9269 -94.6028 34° Northeast 425 489 21,000 1,320 Climbing Houston Center
05:10PM 30.9481 -94.5892 29° Northeast 414 476 21,300 1,440 Climbing Fort Worth Center
05:11PM 31.0464 -94.5086 35° Northeast 414 476 22,800 1,440 Climbing Fort Worth Center
05:12PM 31.1447 -94.4353 33° Northeast 414 476 24,200 1,380 Climbing Fort Worth Center
05:13PM 31.2472 -94.3542 34° Northeast 421 484 25,600 1,320 Climbing Fort Worth Center
05:14PM 31.3517 -94.2731 34° Northeast 433 498 26,900 1,200 Climbing Fort Worth Center
05:15PM 31.4542 -94.1942 33° Northeast 439 505 28,000 1,140 Climbing Fort Worth Center
05:16PM 31.5583 -94.1100 35° Northeast 439 505 29,200 1,200 Climbing Fort Worth Center
05:17PM 31.6628 -94.0331 32° Northeast 444 511 30,400 1,200 Climbing Fort Worth Center
05:18PM 31.7669 -93.9486 35° Northeast 444 511 31,600 1,140 Climbing Fort Worth Center
05:19PM 31.8753 -93.8661 33° Northeast 449 517 32,700 1,140 Climbing Fort Worth Center
05:20PM 31.9753 -93.7792 36° Northeast 449 517 33,900 1,080 Climbing Fort Worth Center
05:21PM 32.0794 -93.7039 31° Northeast 444 511 34,900 540 Climbing Fort Worth Center
05:22PM 32.1933 -93.6036 37° Northeast 449 517 35,000  Climbing Fort Worth Center
05:23PM 32.3033 -93.5153 34° Northeast 463 533 35,000  Level Fort Worth Center
05:24PM 32.4172 -93.4219 35° Northeast 481 554 35,000  Level Fort Worth Center
05:25PM 32.5375 -93.3278 33° Northeast 495 570 35,000  Level Fort Worth Center
05:26PM 32.6575 -93.2311 34° Northeast 510 587 35,000  Level Fort Worth Center
05:27PM 32.7692 -93.1419 34° Northeast 532 612 35,000  Level Fort Worth Center
05:28PM 32.8889 -93.0397 36° Northeast 527 606 35,000  Level Fort Worth Center
05:29PM 32.9931 -92.9133 45° Northeast 527 606 35,000  Level Fort Worth Center
05:30PM 33.0944 -92.7742 49° Northeast 533 613 35,000  Level Fort Worth Center
05:34PM 33.4356 -92.2989 49° Northeast 557 641 35,000  Level Memphis Center
05:35PM 33.5317 -92.1614 50° Northeast 545 627 35,000  Level Memphis Center
05:36PM 33.6294 -92.0236 50° Northeast 545 627 35,000  Level Memphis Center
05:37PM 33.7272 -91.8883 49° Northeast 545 627 35,000  Level Memphis Center
05:38PM 33.8206 -91.7500 51° Northeast 540 621 35,000  Level Memphis Center
05:39PM 33.9267 -91.5939 51° Northeast 546 628 35,000  Level Memphis Center
05:40PM 34.0239 -91.4550 50° Northeast 539 620 35,000  Level Memphis Center
05:41PM 34.1169 -91.3156 51° Northeast 546 628 35,000  Level Memphis Center
05:42PM 34.2181 -91.1736 49° Northeast 546 628 35,000  Level Memphis Center
05:43PM 34.3044 -91.0461 51° Northeast 546 628 35,000  Level Memphis Center
05:44PM 34.4011 -90.9033 51° Northeast 546 628 35,000  Level Memphis Center
05:45PM 34.4975 -90.7603 51° Northeast 546 628 35,000  Level Memphis Center
05:46PM 34.5939 -90.6169 51° Northeast 545 627 35,000  Level Memphis Center
05:47PM 34.6903 -90.4758 50° Northeast 550 633 35,000  Level Memphis Center
05:48PM 34.7967 -90.3167 51° Northeast 545 627 35,000  Level Memphis Center
05:49PM 34.8944 -90.1722 50° Northeast 545 627 35,000  Level Memphis Center
05:50PM 34.9881 -90.0225 53° Northeast 550 633 35,000  Level Memphis Center
05:51PM 35.0208 -89.8447 77° East 536 617 35,000  Level Memphis Center
05:52PM 35.0222 -89.6800 89° East 531 611 35,000  Level Memphis Center
05:53PM 35.0211 -89.4975 90° East 536 617 35,000  Level Memphis Center
05:54PM 35.0197 -89.3175 90° East 530 610 35,000  Level Memphis Center
05:55PM 35.0200 -89.1400 90° East 530 610 35,000  Level Memphis Center
05:56PM 35.0200 -88.9422 90° East 525 604 35,000  Level Memphis Center
05:57PM 35.0200 -88.7597 90° East 530 610 35,000  Level Memphis Center
05:58PM 35.0175 -88.5822 91° East 530 610 35,000  Level Memphis Center
05:59PM 35.0192 -88.4072 89° East 525 604 35,000  Level Memphis Center
06:00PM 35.0189 -88.2603 90° East 525 604 35,000  Level Memphis Center
06:01PM 35.0169 -88.0397 91° East 540 621 35,000  Level Memphis Center
06:02PM 35.0156 -87.8569 90° East 540 621 35,000  Level Memphis Center
06:03PM 35.0117 -87.6797 91° East 528 608 35,000  Level Memphis Center
06:04PM 35.0097 -87.4947 91° East 535 616 35,000  Level Memphis Center
06:05PM 35.0075 -87.3172 91° East 530 610 35,000  Level Memphis Center
06:07PM 35.0064 -87.0108 90° East 562 647 35,000  Level Atlanta Center
06:08PM 35.0022 -86.8306 92° East 550 633 35,000  Level Atlanta Center
06:09PM 34.9978 -86.6531 92° East 534 615 35,000  Level Atlanta Center
06:10PM 34.9950 -86.4803 91° East 516 594 35,000  Level Atlanta Center
06:11PM 34.9919 -86.3156 91° East 503 579 35,000  Level Atlanta Center
06:12PM 34.9892 -86.1303 91° East 498 573 35,000  Level Atlanta Center
06:13PM 35.0353 -85.9869 69° East 492 566 35,000  Level Atlanta Center
06:14PM 35.1022 -85.8286 63° Northeast 498 573 35,000  Level Atlanta Center
06:15PM 35.1714 -85.6650 63° Northeast 518 596 35,000  Level Atlanta Center
06:16PM 35.2403 -85.5008 63° Northeast 525 604 35,000  Level Atlanta Center
06:17PM 35.3131 -85.3342 62° Northeast 530 610 35,000  Level Atlanta Center
06:18PM 35.3814 -85.1697 63° Northeast 530 610 35,000  Level Atlanta Center
06:19PM 35.4494 -85.0075 63° Northeast 530 610 35,000  Level Atlanta Center
06:20PM 35.5153 -84.8450 64° Northeast 530 610 35,000  Level Atlanta Center
06:21PM 35.5831 -84.6822 63° Northeast 530 610 35,000  Level Atlanta Center
06:22PM 35.6569 -84.4989 64° Northeast 530 610 35,000  Level Atlanta Center
06:23PM 35.7242 -84.3356 63° Northeast 530 610 35,000  Level Atlanta Center
06:24PM 35.7933 -84.1692 63° Northeast 531 611 35,000  Level Atlanta Center
06:25PM 35.8600 -84.0028 64° Northeast 531 611 35,000  Level Atlanta Center
06:26PM 35.9247 -83.8386 64° Northeast 531 611 35,000  Level Atlanta Center
06:27PM 35.9889 -83.6717 65° Northeast 531 611 35,000  Level Atlanta Center
06:28PM 36.0489 -83.5044 66° East 531 611 35,000  Level Atlanta Center
06:29PM 36.1083 -83.3372 66° East 526 605 35,000  Level Atlanta Center
06:30PM 36.1700 -83.1719 65° Northeast 526 605 35,000  Level Atlanta Center
06:31PM 36.2269 -83.0092 67° East 520 598 35,000  Level Atlanta Center
06:32PM 36.2903 -82.8436 65° Northeast 520 598 35,000  Level Atlanta Center
06:33PM 36.3489 -82.6803 66° East 520 598 35,000  Level Atlanta Center
06:34PM 36.4056 -82.5142 67° East 520 598 35,000 -120 Level Atlanta Center
06:35PM 36.4658 -82.3503 65° Northeast 520 598 34,800 -600 Descending Atlanta Center
06:36PM 36.5219 -82.1942 66° East 515 593 33,800 -900 Descending Atlanta Center
06:37PM 36.5758 -82.0406 66° East 490 564 33,000 -420 Descending Atlanta Center
06:38PM 36.6275 -81.8892 67° East 479 551 33,000 -300 Level Atlanta Center
06:39PM 36.6725 -81.7275 71° East 479 551 32,400 -900 Descending Atlanta Center
06:40PM 36.7131 -81.5606 73° East 490 564 31,300 -1,140 Descending Atlanta Center
06:41PM 36.7514 -81.3936 74° East 490 564 30,200 -660 Descending Atlanta Center
06:42PM 36.7853 -81.2267 76° East 498 573 30,000 -540 Descending Atlanta Center
06:43PM 36.8250 -81.0539 74° East 498 573 29,200 -1,260 Descending Atlanta Center
06:45PM 36.9064 -80.7039 74° East 491 565 26,000 -1,320 Descending Washington Center
06:46PM 36.9475 -80.5247 74° East 480 552 25,000 -540 Descending Washington Center
06:47PM 36.9811 -80.3631 75° East 480 552 25,000 -60 Level Washington Center
06:48PM 37.0169 -80.1961 75° East 490 564 24,900 -540 Descending Washington Center
06:49PM 37.0353 -80.0411 82° East 477 549 24,000 -480 Descending Washington Center
06:50PM 37.0019 -79.9247 110° East 420 483 24,000 -300 Level Washington Center
06:51PM 36.9586 -79.7975 113° Southeast 397 457 23,400 -840 Descending Washington Center
06:52PM 36.9164 -79.6886 116° Southeast 373 429 22,400 -1,140 Descending Washington Center
06:53PM 36.8653 -79.5978 125° Southeast 305 351 21,200 -1,140 Descending Washington Center
06:54PM 36.7981 -79.5425 147° Southeast 293 337 20,200 -600 Descending Washington Center
06:55PM 36.7331 -79.4897 147° Southeast 288 331 20,000 -120 Descending Washington Center
06:56PM 36.6783 -79.4431 146° Southeast 272 313 20,000 -480 Level Washington Center
06:57PM 36.6214 -79.3961 147° Southeast 267 307 19,100 -1,920 Descending Washington Center
06:58PM 36.5542 -79.3411 147° Southeast 273 314 16,200 -1,680 Descending Washington Center
06:59PM 36.5281 -79.2442 109° East 279 321 15,800 -240 Descending Washington Center
07:00PM 36.5939 -79.1414 51° Northeast 250 288 15,800  Level Washington Center
07:01PM 36.6506 -79.0583 50° Northeast 272 313 15,800  Level Washington Center
07:02PM 36.7092 -78.9781 48° Northeast 300 345 15,800 -420 Level Washington Center
07:03PM 36.7639 -79.0272 324° Northwest 184 212 15,000 -900 Descending Washington Center
07:04PM 36.7331 -79.0881 238° Southwest 122 140 14,100 -600 Descending Washington Center
07:05PM 36.7000 -79.1436 233° Southwest 153 176 13,800 -180 Descending Washington Center
07:06PM 36.6589 -79.2011 228° Southwest 200 230 13,800 -660 Level Washington Center
07:07PM 36.6103 -79.1447 137° Southeast 156 180 12,500 -1,320 Descending Washington Center
07:07PM 36.5900 -79.1308 151° Southeast 245 282 12,000 -900 Descending Washington Center
07:08PM 36.5569 -79.1189 164° South 199 229 11,600 -540 Descending Washington Center
07:08PM 36.5364 -79.1050 152° Southeast 200 230 11,500 -720 Descending Washington Center
07:09PM 36.5056 -79.0908 160° South 204 235 10,900 -900 Descending Washington Center
07:09PM 36.4808 -79.0767 155° Southeast 214 246 10,600 -1,020 Descending Washington Center
07:10PM 36.4506 -79.0469 142° Southeast 213 245 9,900 -600 Descending Washington Center
07:10PM 36.4281 -79.0253 142° Southeast 255 293 10,000  Climbing Washington Center
07:11PM 36.3978 -78.9931 139° Southeast 226 260 9,900  Descending Washington Center
07:11PM 36.3775 -78.9742 143° Southeast 238 274 10,000 60 Climbing Washington Center
07:12PM 36.3511 -78.9447 138° Southeast 248 285 10,000 -300 Level Washington Center
07:12PM 36.3186 -78.9147 143° Southeast 245 282 9,700 -1,200 Descending Washington Center
07:13PM 36.2922 -78.8853 138° Southeast 253 291 8,800 -1,740 Descending Washington Center
07:13PM 36.2661 -78.8558 138° Southeast 257 296 8,000 -1,620 Descending Washington Center
07:14PM 36.2394 -78.8317 144° Southeast 263 303 7,200 -1,200 Descending Washington Center
07:14PM 36.2092 -78.7969 137° Southeast 268 308 6,800 -840 Descending Washington Center
07:15PM 36.1867 -78.7781 146° Southeast 263 303 6,400 -840 Descending Washington Center
07:15PM 36.1581 -78.7564 149° Southeast 204 235 6,000 -480 Descending Washington Center
07:16PM 36.1169 -78.7314 154° Southeast 176 203 5,800 -600 Descending Washington Center
07:17PM 36.0939 -78.6533 110° East 237 273 4,800 -840 Descending Washington Center
07:18PM 36.0792 -78.5758 103° East 232 267 4,100 -780 Descending Washington Center
07:19PM 36.0506 -78.5594 155° Southeast 144 166 3,300 -600 Descending Washington Center
07:20PM 36.0347 -78.6025 246° West 120 138 3,000 -180 Descending Washington Center
07:21PM 36.0133 -78.6297 226° Southwest 137 158 3,000 -120 Level Washington Center
07:22PM 35.9808 -78.6722 227° Southwest 147 169 2,800 -420 Descending Washington Center
07:23PM 35.9572 -78.6969 220° Southwest 144 166 2,200 -720 Descending Washington Center